createdAt,value
2022-09-18T00:00:57.477Z,13.40
2022-09-18T00:03:24.416Z,13.40
2022-09-18T00:05:51.281Z,13.30
2022-09-18T00:08:18.011Z,13.30
2022-09-18T00:10:46.685Z,13.40
2022-09-18T00:13:14.457Z,13.30
2022-09-18T00:15:41.296Z,13.40
2022-09-18T00:18:08.334Z,13.40
2022-09-18T00:20:35.579Z,13.40
2022-09-18T00:23:02.405Z,13.30
2022-09-18T00:25:29.821Z,13.30
2022-09-18T00:27:56.554Z,13.40
2022-09-18T00:30:23.301Z,13.30
2022-09-18T00:32:50.035Z,13.40
2022-09-18T00:35:16.982Z,13.40
2022-09-18T00:37:43.725Z,13.30
2022-09-18T00:40:11.072Z,13.30
2022-09-18T00:42:37.852Z,13.30
2022-09-18T00:45:04.764Z,13.30
2022-09-18T00:47:46.310Z,13.30
2022-09-18T00:50:24.724Z,13.30
2022-09-18T00:52:54.960Z,13.30
2022-09-18T00:55:24.103Z,13.30
2022-09-18T00:57:56.025Z,13.30
2022-09-18T01:00:23.316Z,13.30
2022-09-18T01:02:50.294Z,13.30
2022-09-18T01:05:19.069Z,13.30
2022-09-18T01:07:57.779Z,13.30
2022-09-18T01:10:39.176Z,13.30
2022-09-18T01:13:21.288Z,13.30
2022-09-18T01:15:52.560Z,13.30
2022-09-18T01:18:37.700Z,13.30
2022-09-18T01:21:09.599Z,13.30
2022-09-18T01:23:44.850Z,13.30
2022-09-18T01:26:31.027Z,13.30
2022-09-18T01:29:05.231Z,13.40
2022-09-18T01:31:34.650Z,13.30
2022-09-18T01:34:09.274Z,13.40
2022-09-18T01:36:39.350Z,13.30
2022-09-18T01:39:14.154Z,13.30
2022-09-18T01:41:42.812Z,13.30
2022-09-18T01:44:14.335Z,13.30
2022-09-18T01:46:42.720Z,13.30
2022-09-18T01:49:18.085Z,13.30
2022-09-18T01:51:57.153Z,13.30
2022-09-18T01:54:27.157Z,13.20
2022-09-18T01:56:57.228Z,13.20
2022-09-18T01:59:33.920Z,13.20
2022-09-18T02:02:10.100Z,13.20
2022-09-18T02:04:39.048Z,13.20
2022-09-18T02:07:28.739Z,13.10
2022-09-18T02:09:56.472Z,13.20
2022-09-18T02:12:24.929Z,13.20
2022-09-18T02:14:57.731Z,13.20
2022-09-18T02:17:56.869Z,13.20
2022-09-18T02:20:34.341Z,13.30
2022-09-18T02:23:06.567Z,13.20
2022-09-18T02:25:37.289Z,13.20
2022-09-18T02:28:05.470Z,13.20
2022-09-18T02:30:32.669Z,13.20
2022-09-18T02:32:59.851Z,13.10
2022-09-18T02:35:31.954Z,13.10
2022-09-18T02:38:19.035Z,13.10
2022-09-18T02:41:00.671Z,13.10
2022-09-18T02:43:35.636Z,13.00
2022-09-18T02:46:02.508Z,13.00
2022-09-18T02:48:29.270Z,13.00
2022-09-18T02:51:02.161Z,12.90
2022-09-18T02:53:49.207Z,12.90
2022-09-18T02:56:18.977Z,12.80
2022-09-18T02:58:52.434Z,12.60
2022-09-18T03:01:20.913Z,12.50
2022-09-18T03:03:47.905Z,12.40
2022-09-18T03:06:17.649Z,12.30
2022-09-18T03:08:44.496Z,12.30
2022-09-18T03:11:11.318Z,12.20
2022-09-18T03:13:38.999Z,12.20
2022-09-18T03:16:05.832Z,12.10
2022-09-18T03:18:32.748Z,12.00
2022-09-18T03:20:59.847Z,11.90
2022-09-18T03:23:26.749Z,11.80
2022-09-18T03:26:02.669Z,11.80
2022-09-18T03:28:32.467Z,11.60
2022-09-18T03:30:59.991Z,11.50
2022-09-18T03:33:27.630Z,11.40
2022-09-18T03:35:54.406Z,11.40
2022-09-18T03:38:21.407Z,11.30
2022-09-18T03:40:49.599Z,11.20
2022-09-18T03:43:16.844Z,11.20
2022-09-18T03:45:43.597Z,11.10
2022-09-18T03:48:10.948Z,11.10
2022-09-18T03:50:39.460Z,11.00
2022-09-18T03:53:08.566Z,11.00
2022-09-18T03:55:47.115Z,10.90
2022-09-18T03:58:32.264Z,10.90
2022-09-18T04:01:17.369Z,10.80
2022-09-18T04:04:10.401Z,10.80
2022-09-18T04:07:09.121Z,10.80
2022-09-18T04:09:45.146Z,10.70
2022-09-18T04:12:11.979Z,10.60
2022-09-18T04:14:39.438Z,10.60
2022-09-18T04:17:06.272Z,10.50
2022-09-18T04:19:33.035Z,10.50
2022-09-18T04:21:59.733Z,10.40
2022-09-18T04:24:27.371Z,10.40
2022-09-18T04:26:54.285Z,10.30
2022-09-18T04:29:23.673Z,10.30
2022-09-18T04:31:51.147Z,10.20
2022-09-18T04:34:20.293Z,10.10
2022-09-18T04:36:47.648Z,10.10
2022-09-18T04:39:15.022Z,10.00
2022-09-18T04:41:42.419Z,10.00
2022-09-18T04:44:09.144Z,10.00
2022-09-18T04:46:36.184Z,10.00
2022-09-18T04:49:03.095Z,9.90
2022-09-18T04:51:30.333Z,10.00
2022-09-18T04:53:57.091Z,10.00
2022-09-18T04:56:24.483Z,10.00
2022-09-18T04:58:52.549Z,10.00
2022-09-18T05:01:19.553Z,10.10
2022-09-18T05:03:46.509Z,10.10
2022-09-18T05:06:24.707Z,10.10
2022-09-18T05:08:51.567Z,10.20
2022-09-18T05:11:19.353Z,10.20
2022-09-18T05:13:49.462Z,10.30
2022-09-18T05:16:16.890Z,10.40
2022-09-18T05:18:53.124Z,10.50
2022-09-18T05:21:20.080Z,10.60
2022-09-18T05:23:47.974Z,10.70
2022-09-18T05:26:17.149Z,10.80
2022-09-18T05:28:43.932Z,10.80
2022-09-18T05:31:10.791Z,10.90
2022-09-18T05:33:42.998Z,10.90
2022-09-18T05:36:10.246Z,11.00
2022-09-18T05:38:37.158Z,11.00
2022-09-18T05:41:05.919Z,11.00
2022-09-18T05:43:32.709Z,11.00
2022-09-18T05:46:00.795Z,11.00
2022-09-18T05:48:38.525Z,11.00
2022-09-18T05:51:06.637Z,11.00
2022-09-18T05:53:33.420Z,11.00
2022-09-18T05:56:20.837Z,11.00
2022-09-18T05:58:47.712Z,11.00
2022-09-18T06:01:14.626Z,11.00
2022-09-18T06:04:04.850Z,11.10
2022-09-18T06:06:43.156Z,11.10
2022-09-18T06:09:10.356Z,11.10
2022-09-18T06:11:37.511Z,11.10
2022-09-18T06:14:05.426Z,11.20
2022-09-18T06:16:33.350Z,11.30
2022-09-18T06:19:03.635Z,11.40
2022-09-18T06:21:30.401Z,11.50
2022-09-18T06:23:57.903Z,11.70
2022-09-18T06:26:40.311Z,11.90
2022-09-18T06:29:07.113Z,12.10
2022-09-18T06:31:45.297Z,12.30
2022-09-18T06:34:18.035Z,12.40
2022-09-18T06:36:45.898Z,12.60
2022-09-18T06:39:27.107Z,12.80
2022-09-18T06:41:59.172Z,13.00
2022-09-18T06:44:47.158Z,13.10
2022-09-18T06:47:15.658Z,13.20
2022-09-18T06:49:45.353Z,13.20
2022-09-18T06:52:12.115Z,13.20
2022-09-18T06:54:39.975Z,13.30
2022-09-18T06:57:07.183Z,13.40
2022-09-18T06:59:33.949Z,13.40
2022-09-18T07:02:01.023Z,13.40
2022-09-18T07:04:46.881Z,13.40
2022-09-18T07:07:16.189Z,13.50
2022-09-18T07:09:46.038Z,13.50
2022-09-18T07:12:30.368Z,13.50
2022-09-18T07:14:57.193Z,13.50
2022-09-18T07:17:26.786Z,13.60
2022-09-18T07:19:55.804Z,13.60
2022-09-18T07:22:29.611Z,13.60
2022-09-18T07:24:56.427Z,13.70
2022-09-18T07:27:23.183Z,13.80
2022-09-18T07:29:51.038Z,13.80
2022-09-18T07:32:22.256Z,13.80
2022-09-18T07:34:50.006Z,13.90
2022-09-18T07:37:24.098Z,14.00
2022-09-18T07:40:03.496Z,14.10
2022-09-18T07:43:13.479Z,14.20
2022-09-18T07:45:49.085Z,14.30
2022-09-18T07:48:16.346Z,14.40
2022-09-18T07:50:47.097Z,14.40
2022-09-18T07:53:15.030Z,14.60
2022-09-18T07:55:45.331Z,14.60
2022-09-18T07:58:13.295Z,14.60
2022-09-18T08:00:59.980Z,14.60
2022-09-18T08:03:27.255Z,14.60
2022-09-18T08:06:22.725Z,14.40
2022-09-18T08:09:12.403Z,14.50
2022-09-18T08:12:06.004Z,14.50
2022-09-18T08:14:41.491Z,14.60
2022-09-18T08:17:43.343Z,14.70
2022-09-18T08:20:28.685Z,14.70
2022-09-18T08:23:07.233Z,14.70
2022-09-18T08:25:37.499Z,14.80
2022-09-18T08:28:05.574Z,14.90
2022-09-18T08:30:42.723Z,14.90
2022-09-18T08:33:11.256Z,15.00
2022-09-18T08:35:39.803Z,14.90
2022-09-18T08:38:29.331Z,14.90
2022-09-18T08:41:37.793Z,14.90
2022-09-18T08:44:08.492Z,14.90
2022-09-18T08:46:42.614Z,14.80
2022-09-18T08:49:19.277Z,14.80
2022-09-18T08:51:53.132Z,14.80
2022-09-18T08:54:35.362Z,14.80
2022-09-18T08:57:42.485Z,14.80
2022-09-18T09:00:34.796Z,14.80
2022-09-18T09:03:27.468Z,14.80
2022-09-18T09:06:04.349Z,14.80
2022-09-18T09:08:43.117Z,14.80
2022-09-18T09:11:14.402Z,14.80
2022-09-18T09:13:52.220Z,14.90
2022-09-18T09:16:24.052Z,15.00
2022-09-18T09:19:02.014Z,15.00
2022-09-18T09:21:42.911Z,14.80
2022-09-18T09:24:29.040Z,14.70
2022-09-18T09:27:17.793Z,14.70
2022-09-18T09:30:15.509Z,14.70
2022-09-18T09:33:02.181Z,14.80
2022-09-18T09:35:52.340Z,15.00
2022-09-18T09:38:25.771Z,15.00
2022-09-18T09:40:54.239Z,14.90
2022-09-18T09:43:27.017Z,14.80
2022-09-18T09:45:55.272Z,14.90
2022-09-18T09:48:41.144Z,15.00
2022-09-18T09:51:17.611Z,15.00
2022-09-18T09:53:44.726Z,15.00
2022-09-18T09:56:19.795Z,15.00
2022-09-18T09:59:08.556Z,15.10
2022-09-18T10:01:49.090Z,15.20
2022-09-18T10:04:26.254Z,15.10
2022-09-18T10:06:53.153Z,15.20
2022-09-18T10:09:34.891Z,15.10
2022-09-18T10:12:05.351Z,15.20
2022-09-18T10:14:36.356Z,15.20
2022-09-18T10:17:04.465Z,15.30
2022-09-18T10:19:39.342Z,15.30
2022-09-18T10:22:07.804Z,15.30
2022-09-18T10:25:07.672Z,15.30
2022-09-18T10:27:34.618Z,15.30
2022-09-18T10:30:06.918Z,15.40
2022-09-18T10:32:43.429Z,15.30
2022-09-18T10:35:42.253Z,15.30
2022-09-18T10:38:27.631Z,15.30
2022-09-18T10:40:54.579Z,15.40
2022-09-18T10:43:21.468Z,15.40
2022-09-18T10:45:55.344Z,15.50
2022-09-18T10:48:34.217Z,15.60
2022-09-18T10:51:03.267Z,15.50
2022-09-18T10:53:42.607Z,15.50
2022-09-18T10:56:23.267Z,15.50
2022-09-18T10:58:53.332Z,15.60
2022-09-18T11:01:20.247Z,15.60
2022-09-18T11:04:05.761Z,15.50
2022-09-18T11:06:37.416Z,15.50
2022-09-18T11:09:17.822Z,15.50
2022-09-18T11:11:45.866Z,15.40
2022-09-18T11:14:27.189Z,15.50
2022-09-18T11:17:00.773Z,15.50
2022-09-18T11:19:39.272Z,15.50
2022-09-18T11:22:33.027Z,15.50
2022-09-18T11:25:17.076Z,15.50
2022-09-18T11:27:49.913Z,15.50
2022-09-18T11:30:20.743Z,15.60
2022-09-18T11:32:49.232Z,15.50
2022-09-18T11:35:18.075Z,15.50
2022-09-18T11:37:53.087Z,15.50
2022-09-18T11:40:23.584Z,15.50
2022-09-18T11:42:52.617Z,15.50
2022-09-18T11:45:19.673Z,15.50
2022-09-18T11:47:48.274Z,15.60
2022-09-18T11:50:20.594Z,15.50
2022-09-18T11:52:51.261Z,15.50
2022-09-18T11:55:22.292Z,15.60
2022-09-18T11:57:55.792Z,15.70
2022-09-18T12:00:23.600Z,15.70
2022-09-18T12:03:13.181Z,15.60
2022-09-18T12:06:01.774Z,15.70
2022-09-18T12:08:50.485Z,15.70
2022-09-18T12:11:23.102Z,15.70
2022-09-18T12:14:00.027Z,15.70
2022-09-18T12:16:29.063Z,15.60
2022-09-18T12:19:09.937Z,15.60
2022-09-18T12:21:43.012Z,15.60
2022-09-18T12:24:15.225Z,15.60
2022-09-18T12:26:52.916Z,15.60
2022-09-18T12:29:22.748Z,15.70
2022-09-18T12:32:08.226Z,15.70
2022-09-18T12:34:44.315Z,15.70
2022-09-18T12:37:21.479Z,15.70
2022-09-18T12:40:01.272Z,15.70
2022-09-18T12:42:38.414Z,15.60
2022-09-18T12:45:17.581Z,15.70
2022-09-18T12:47:50.179Z,15.70
2022-09-18T12:50:36.413Z,15.80
2022-09-18T12:53:16.072Z,15.80
2022-09-18T12:55:42.802Z,15.70
2022-09-18T12:58:12.554Z,15.70
2022-09-18T13:00:40.511Z,15.70
2022-09-18T13:03:07.292Z,15.80
2022-09-18T13:05:34.037Z,15.90
2022-09-18T13:08:21.511Z,15.80
2022-09-18T13:10:50.367Z,15.80
2022-09-18T13:13:19.915Z,15.90
2022-09-18T13:15:50.205Z,15.90
2022-09-18T13:18:20.452Z,15.90
2022-09-18T13:20:47.296Z,15.90
2022-09-18T13:23:17.648Z,15.80
2022-09-18T13:25:47.335Z,15.90
2022-09-18T13:28:15.298Z,15.90
2022-09-18T13:30:42.417Z,16.00
2022-09-18T13:33:21.752Z,16.00
2022-09-18T13:35:53.986Z,15.90
2022-09-18T13:38:22.117Z,15.90
2022-09-18T13:40:56.033Z,15.90
2022-09-18T13:43:31.609Z,16.10
2022-09-18T13:46:06.593Z,16.10
2022-09-18T13:48:34.273Z,16.20
2022-09-18T13:51:02.680Z,16.30
2022-09-18T13:53:38.651Z,16.30
2022-09-18T13:56:07.048Z,16.30
2022-09-18T13:58:33.990Z,16.50
2022-09-18T14:01:10.250Z,16.30
2022-09-18T14:03:38.939Z,16.40
2022-09-18T14:06:38.604Z,16.50
2022-09-18T14:09:31.560Z,16.60
2022-09-18T14:12:10.492Z,16.70
2022-09-18T14:14:38.343Z,16.80
2022-09-18T14:17:15.096Z,16.80
2022-09-18T14:19:45.005Z,16.90
2022-09-18T14:22:40.336Z,16.80
2022-09-18T14:25:10.799Z,17.00
2022-09-18T14:27:50.765Z,17.10
2022-09-18T14:30:20.306Z,17.10
2022-09-18T14:33:05.314Z,17.00
2022-09-18T14:35:38.270Z,17.10
2022-09-18T14:38:28.078Z,17.00
2022-09-18T14:40:58.026Z,17.10
2022-09-18T14:43:25.307Z,17.40
2022-09-18T14:45:53.347Z,17.50
2022-09-18T14:48:21.710Z,17.60
2022-09-18T14:50:58.884Z,17.40
2022-09-18T14:53:27.808Z,17.40
2022-09-18T14:55:57.277Z,17.60
2022-09-18T14:58:25.627Z,17.50
2022-09-18T15:00:55.840Z,17.40
2022-09-18T15:03:28.196Z,17.30
2022-09-18T15:05:57.063Z,17.20
2022-09-18T15:08:26.835Z,17.00
2022-09-18T15:10:56.839Z,16.90
2022-09-18T15:13:23.752Z,16.60
2022-09-18T15:15:58.756Z,16.50
2022-09-18T15:18:27.681Z,16.20
2022-09-18T15:20:55.888Z,15.80
2022-09-18T15:23:28.521Z,15.70
2022-09-18T15:25:57.162Z,15.50
2022-09-18T15:28:25.522Z,15.50
2022-09-18T15:30:58.189Z,15.30
2022-09-18T15:33:27.326Z,15.20
2022-09-18T15:35:55.574Z,15.10
2022-09-18T15:38:29.596Z,15.10
2022-09-18T15:40:56.304Z,15.00
2022-09-18T15:43:29.042Z,15.00
2022-09-18T15:46:06.360Z,15.00
2022-09-18T15:48:33.947Z,14.90
2022-09-18T15:51:08.220Z,14.90
2022-09-18T15:53:36.718Z,14.90
2022-09-18T15:56:05.182Z,14.80
2022-09-18T15:58:41.137Z,14.70
2022-09-18T16:01:15.957Z,14.70
2022-09-18T16:03:42.847Z,14.60
2022-09-18T16:06:19.946Z,14.60
2022-09-18T16:08:50.203Z,14.50
2022-09-18T16:11:37.479Z,14.50
2022-09-18T16:14:24.136Z,14.40
2022-09-18T16:16:52.167Z,14.40
2022-09-18T16:19:19.570Z,14.30
2022-09-18T16:21:49.339Z,14.20
2022-09-18T16:24:23.330Z,14.10
2022-09-18T16:26:50.109Z,14.10
2022-09-18T16:29:21.196Z,14.00
2022-09-18T16:31:48.421Z,13.90
2022-09-18T16:34:22.813Z,13.80
2022-09-18T16:36:50.122Z,13.80
2022-09-18T16:39:18.377Z,13.80
2022-09-18T16:41:45.787Z,13.70
2022-09-18T16:44:13.719Z,13.70
2022-09-18T16:46:40.478Z,13.60
2022-09-18T16:49:07.739Z,13.50
2022-09-18T16:51:34.508Z,13.40
2022-09-18T16:54:01.340Z,13.40
2022-09-18T16:56:29.986Z,13.30
2022-09-18T16:58:57.262Z,13.20
2022-09-18T17:01:24.355Z,13.10
2022-09-18T17:03:51.631Z,13.00
2022-09-18T17:06:18.952Z,13.00
2022-09-18T17:08:46.892Z,12.90
2022-09-18T17:11:13.815Z,12.90
2022-09-18T17:13:40.623Z,12.90
2022-09-18T17:16:07.414Z,12.70
2022-09-18T17:18:34.449Z,12.70
2022-09-18T17:21:02.880Z,12.60
2022-09-18T17:23:32.857Z,12.50
2022-09-18T17:26:06.294Z,12.40
2022-09-18T17:28:32.998Z,12.30
2022-09-18T17:30:59.778Z,12.30
2022-09-18T17:33:26.579Z,12.30
2022-09-18T17:35:53.311Z,12.20
2022-09-18T17:38:20.102Z,12.10
2022-09-18T17:40:55.321Z,12.10
2022-09-18T17:43:22.079Z,12.00
2022-09-18T17:45:53.693Z,11.90
2022-09-18T17:48:20.495Z,11.90
2022-09-18T17:50:47.236Z,11.80
2022-09-18T17:53:14.030Z,11.70
2022-09-18T17:55:40.778Z,11.70
2022-09-18T17:58:07.522Z,11.70
2022-09-18T18:00:37.582Z,11.60
2022-09-18T18:03:04.389Z,11.50
2022-09-18T18:05:31.093Z,11.50
2022-09-18T18:07:57.893Z,11.40
2022-09-18T18:10:24.661Z,11.40
2022-09-18T18:12:51.397Z,11.40
2022-09-18T18:15:19.422Z,11.40
2022-09-18T18:17:48.619Z,11.40
2022-09-18T18:20:18.345Z,11.40
2022-09-18T18:22:45.098Z,11.40
2022-09-18T18:25:12.507Z,11.40
2022-09-18T18:27:39.223Z,11.40
2022-09-18T18:30:08.816Z,11.40
2022-09-18T18:32:35.638Z,11.40
2022-09-18T18:35:02.445Z,11.50
2022-09-18T18:37:29.193Z,11.50
2022-09-18T18:39:55.978Z,11.50
2022-09-18T18:42:22.861Z,11.60
2022-09-18T18:44:49.551Z,11.80
2022-09-18T18:47:18.139Z,11.90
2022-09-18T18:49:44.873Z,12.10
2022-09-18T18:52:12.062Z,12.30
2022-09-18T18:54:38.929Z,12.40
2022-09-18T18:57:05.811Z,12.40
2022-09-18T18:59:33.096Z,12.40
2022-09-18T19:01:59.954Z,12.30
2022-09-18T19:04:26.859Z,12.20
2022-09-18T19:06:53.952Z,12.10
2022-09-18T19:09:22.137Z,12.00
2022-09-18T19:11:49.702Z,11.90
2022-09-18T19:14:26.435Z,11.80
2022-09-18T19:16:53.666Z,11.70
2022-09-18T19:19:21.520Z,11.60
2022-09-18T19:21:48.285Z,11.50
2022-09-18T19:24:16.426Z,11.50
2022-09-18T19:26:43.254Z,11.50
2022-09-18T19:29:14.684Z,11.40
2022-09-18T19:31:42.846Z,11.40
2022-09-18T19:34:11.854Z,11.30
2022-09-18T19:36:38.936Z,11.30
2022-09-18T19:39:06.958Z,11.30
2022-09-18T19:41:38.806Z,11.20
2022-09-18T19:44:12.491Z,11.20
2022-09-18T19:46:39.573Z,11.10
2022-09-18T19:49:06.517Z,11.00
2022-09-18T19:51:34.484Z,11.00
2022-09-18T19:54:01.226Z,10.90
2022-09-18T19:56:42.606Z,10.90
2022-09-18T19:59:10.424Z,10.80
2022-09-18T20:01:37.372Z,10.70
2022-09-18T20:04:04.247Z,10.60
2022-09-18T20:06:32.516Z,10.50
2022-09-18T20:08:59.604Z,10.50
2022-09-18T20:11:26.644Z,10.40
2022-09-18T20:13:53.806Z,10.40
2022-09-18T20:16:21.211Z,10.30
2022-09-18T20:18:48.417Z,10.20
2022-09-18T20:21:16.263Z,10.10
2022-09-18T20:23:43.110Z,10.10
2022-09-18T20:26:14.317Z,10.10
2022-09-18T20:28:41.393Z,10.20
2022-09-18T20:31:12.548Z,10.30
2022-09-18T20:33:39.399Z,10.20
2022-09-18T20:36:07.548Z,10.20
2022-09-18T20:38:37.304Z,10.20
2022-09-18T20:41:06.966Z,10.10
2022-09-18T20:43:36.340Z,10.10
2022-09-18T20:46:05.463Z,10.10
2022-09-18T20:48:33.147Z,10.10
2022-09-18T20:51:00.704Z,10.30
2022-09-18T20:53:27.990Z,10.40
2022-09-18T20:55:58.372Z,10.50
2022-09-18T20:58:25.472Z,10.70
2022-09-18T21:00:54.247Z,10.80
2022-09-18T21:03:21.125Z,11.00
2022-09-18T21:05:53.014Z,11.00
2022-09-18T21:08:29.922Z,11.10
2022-09-18T21:10:56.667Z,11.20
2022-09-18T21:13:23.426Z,11.30
2022-09-18T21:15:50.210Z,11.30
2022-09-18T21:18:16.962Z,11.30
2022-09-18T21:20:43.822Z,11.40
2022-09-18T21:23:30.405Z,11.50
2022-09-18T21:25:57.165Z,11.50
2022-09-18T21:28:23.901Z,11.50
2022-09-18T21:30:50.671Z,11.50
2022-09-18T21:33:18.127Z,11.50
2022-09-18T21:35:51.482Z,11.60
2022-09-18T21:38:18.266Z,11.70
2022-09-18T21:40:45.553Z,11.70
2022-09-18T21:43:14.247Z,11.80
2022-09-18T21:45:41.149Z,11.80
2022-09-18T21:48:07.886Z,11.90
2022-09-18T21:50:35.566Z,11.90
2022-09-18T21:53:02.277Z,11.90
2022-09-18T21:55:29.291Z,11.90
2022-09-18T21:57:56.063Z,11.90
2022-09-18T22:00:22.824Z,11.90
2022-09-18T22:02:53.357Z,12.00
2022-09-18T22:05:20.727Z,12.00
2022-09-18T22:07:47.428Z,12.00
2022-09-18T22:10:15.940Z,12.00
2022-09-18T22:12:42.730Z,12.00
2022-09-18T22:15:09.633Z,12.00
2022-09-18T22:17:36.379Z,12.00
2022-09-18T22:20:03.197Z,12.10
2022-09-18T22:22:30.104Z,12.00
2022-09-18T22:24:56.979Z,12.10
2022-09-18T22:27:24.186Z,12.10
2022-09-18T22:29:50.891Z,12.10
2022-09-18T22:32:17.706Z,12.20
2022-09-18T22:34:44.426Z,12.20
2022-09-18T22:37:11.628Z,12.20
2022-09-18T22:39:38.407Z,12.20
2022-09-18T22:42:05.531Z,12.20
2022-09-18T22:44:32.297Z,12.20
2022-09-18T22:46:59.107Z,12.10
2022-09-18T22:49:25.901Z,12.10
2022-09-18T22:51:52.758Z,12.10
2022-09-18T22:54:23.897Z,12.10
2022-09-18T22:56:52.185Z,12.10
2022-09-18T22:59:21.340Z,12.20
2022-09-18T23:01:54.226Z,12.20
2022-09-18T23:04:23.604Z,12.20
2022-09-18T23:06:51.111Z,12.20
2022-09-18T23:09:19.122Z,12.20
2022-09-18T23:11:46.716Z,12.20
2022-09-18T23:14:14.758Z,12.20
2022-09-18T23:16:41.615Z,12.30
2022-09-18T23:19:12.752Z,12.30
2022-09-18T23:21:39.682Z,12.30
2022-09-18T23:24:09.201Z,12.40
2022-09-18T23:26:40.960Z,12.50
2022-09-18T23:29:08.756Z,12.50
2022-09-18T23:31:39.657Z,12.60
2022-09-18T23:34:08.107Z,12.60
2022-09-18T23:36:36.486Z,12.60
2022-09-18T23:39:05.084Z,12.70
2022-09-18T23:41:34.385Z,12.70
2022-09-18T23:44:02.086Z,12.70
2022-09-18T23:46:29.176Z,12.70
2022-09-18T23:48:55.938Z,12.80
2022-09-18T23:51:23.624Z,12.80
2022-09-18T23:53:50.415Z,12.80
2022-09-18T23:56:17.181Z,12.80
2022-09-18T23:58:44.906Z,12.90
